createdAt,value
2018-02-08T00:00:38.002Z,-1.10
2018-02-08T00:03:06.922Z,-1.10
2018-02-08T00:05:35.083Z,-1.10
2018-02-08T00:08:03.210Z,-1.10
2018-02-08T00:10:31.349Z,-1.10
2018-02-08T00:12:59.490Z,-1.00
2018-02-08T00:15:27.611Z,-1.00
2018-02-08T00:17:55.752Z,-1.00
2018-02-08T00:20:23.888Z,-1.00
2018-02-08T00:22:52.046Z,-0.90
2018-02-08T00:25:20.337Z,-0.90
2018-02-08T00:27:49.271Z,-0.90
2018-02-08T00:30:17.427Z,-0.90
2018-02-08T00:32:45.593Z,-0.80
2018-02-08T00:35:14.476Z,-1.00
2018-02-08T00:37:42.603Z,-1.00
2018-02-08T00:40:10.772Z,-1.00
2018-02-08T00:42:38.907Z,-1.00
2018-02-08T00:45:07.040Z,-1.00
2018-02-08T00:47:35.172Z,-0.90
2018-02-08T00:50:03.309Z,-1.10
2018-02-08T00:52:32.330Z,-1.10
2018-02-08T00:55:01.214Z,-1.00
2018-02-08T00:57:29.358Z,-1.10
2018-02-08T00:59:58.250Z,-1.00
2018-02-08T01:02:27.160Z,-0.90
2018-02-08T01:04:55.297Z,-1.00
2018-02-08T01:07:23.413Z,-0.90
2018-02-08T01:09:51.556Z,-0.90
2018-02-08T01:12:20.558Z,-0.90
2018-02-08T01:14:48.727Z,-0.90
2018-02-08T01:17:17.638Z,-0.90
2018-02-08T01:19:45.808Z,-0.90
2018-02-08T01:22:14.707Z,-0.90
2018-02-08T01:24:42.865Z,-0.90
2018-02-08T01:27:11.859Z,-0.90
2018-02-08T01:29:40.005Z,-0.90
2018-02-08T01:32:08.129Z,-0.90
2018-02-08T01:34:36.271Z,-0.90
2018-02-08T01:37:04.418Z,-0.90
2018-02-08T01:39:33.312Z,-0.80
2018-02-08T01:42:02.231Z,-0.90
2018-02-08T01:44:30.367Z,-0.90
2018-02-08T01:46:59.258Z,-0.80
2018-02-08T01:49:40.005Z,-0.80
2018-02-08T01:52:08.156Z,-0.80
2018-02-08T01:54:36.307Z,-0.80
2018-02-08T01:57:04.437Z,-0.80
2018-02-08T01:59:32.595Z,-0.80
2018-02-08T02:02:00.785Z,-0.80
2018-02-08T02:04:29.710Z,-0.80
2018-02-08T02:06:57.842Z,-0.80
2018-02-08T02:09:26.208Z,-0.80
2018-02-08T02:11:54.361Z,-0.70
2018-02-08T02:14:22.494Z,-0.70
2018-02-08T02:16:51.445Z,-0.70
2018-02-08T02:19:19.579Z,-0.70
2018-02-08T02:21:47.716Z,-0.70
2018-02-08T02:24:16.603Z,-0.70
2018-02-08T02:26:44.749Z,-0.80
2018-02-08T02:29:12.890Z,-0.70
2018-02-08T02:31:41.034Z,-0.70
2018-02-08T02:34:09.949Z,-0.80
2018-02-08T02:36:38.086Z,-0.80
2018-02-08T02:39:07.002Z,-0.90
2018-02-08T02:41:35.173Z,-0.90
2018-02-08T02:44:03.337Z,-0.90
2018-02-08T02:46:32.290Z,-0.90
2018-02-08T02:49:01.929Z,-0.90
2018-02-08T02:51:30.924Z,-0.80
2018-02-08T02:53:59.920Z,-0.80
2018-02-08T02:56:28.830Z,-0.80
2018-02-08T02:58:56.984Z,-0.80
2018-02-08T03:01:25.901Z,-0.80
2018-02-08T03:03:54.013Z,-0.80
2018-02-08T03:06:23.691Z,-0.80
2018-02-08T03:08:51.808Z,-0.80
2018-02-08T03:11:20.717Z,-0.70
2018-02-08T03:13:48.878Z,-0.70
2018-02-08T03:16:17.787Z,-0.70
2018-02-08T03:18:45.955Z,-0.70
2018-02-08T03:21:14.947Z,-0.80
2018-02-08T03:23:44.110Z,-0.80
2018-02-08T03:26:13.029Z,-0.80
2018-02-08T03:28:41.905Z,-0.90
2018-02-08T03:31:11.405Z,-0.90
2018-02-08T03:33:40.301Z,-0.90
2018-02-08T03:36:09.308Z,-0.90
2018-02-08T03:38:38.205Z,-0.90
2018-02-08T03:41:06.349Z,-0.80
2018-02-08T03:43:35.247Z,-0.80
2018-02-08T03:46:04.246Z,-0.80
2018-02-08T03:48:33.126Z,-0.70
2018-02-08T03:51:02.025Z,-0.70
2018-02-08T03:53:30.937Z,-0.70
2018-02-08T03:55:59.118Z,-0.80
2018-02-08T03:58:27.249Z,-0.80
2018-02-08T04:00:56.149Z,-0.70
2018-02-08T04:03:24.311Z,-0.70
2018-02-08T04:05:52.450Z,-0.70
2018-02-08T04:08:20.612Z,-0.70
2018-02-08T04:10:48.753Z,-0.70
2018-02-08T04:13:16.872Z,-0.70
2018-02-08T04:15:45.158Z,-0.70
2018-02-08T04:18:13.289Z,-0.70
2018-02-08T04:20:42.202Z,-0.70
2018-02-08T04:23:10.328Z,-0.70
2018-02-08T04:25:38.469Z,-0.70
2018-02-08T04:28:06.618Z,-0.70
2018-02-08T04:30:34.734Z,-0.70
2018-02-08T04:33:03.651Z,-0.70
2018-02-08T04:35:31.791Z,-0.70
2018-02-08T04:38:00.709Z,-0.70
2018-02-08T04:40:40.667Z,-0.70
2018-02-08T04:43:20.666Z,-0.70
2018-02-08T04:46:00.632Z,-0.60
2018-02-08T04:48:29.557Z,-0.60
2018-02-08T04:50:57.665Z,-0.60
2018-02-08T04:53:25.968Z,-0.60
2018-02-08T04:55:54.857Z,-0.60
2018-02-08T04:58:23.778Z,-0.60
2018-02-08T05:00:51.947Z,-0.70
2018-02-08T05:03:20.851Z,-0.70
2018-02-08T05:05:48.992Z,-0.70
2018-02-08T05:08:17.137Z,-0.80
2018-02-08T05:10:45.522Z,-0.80
2018-02-08T05:13:13.648Z,-0.80
2018-02-08T05:15:41.778Z,-0.80
2018-02-08T05:18:10.688Z,-0.80
2018-02-08T05:20:38.823Z,-0.80
2018-02-08T05:23:06.984Z,-0.80
2018-02-08T05:25:35.118Z,-0.80
2018-02-08T05:28:03.267Z,-0.70
2018-02-08T05:30:32.156Z,-0.70
2018-02-08T05:33:01.065Z,-0.70
2018-02-08T05:35:29.201Z,-0.70
2018-02-08T05:37:57.363Z,-0.70
2018-02-08T05:40:25.499Z,-0.70
2018-02-08T05:42:53.628Z,-0.70
2018-02-08T05:45:22.758Z,-0.70
2018-02-08T05:47:50.890Z,-0.70
2018-02-08T05:50:19.033Z,-0.70
2018-02-08T05:52:47.169Z,-0.60
2018-02-08T05:55:15.304Z,-0.60
2018-02-08T05:57:43.458Z,-0.60
2018-02-08T06:00:11.612Z,-0.60
2018-02-08T06:02:39.755Z,-0.60
2018-02-08T06:05:07.874Z,-0.70
2018-02-08T06:07:36.021Z,-0.70
2018-02-08T06:10:04.157Z,-0.60
2018-02-08T06:12:33.044Z,-0.70
2018-02-08T06:15:01.948Z,-0.60
2018-02-08T06:17:30.093Z,-0.70
2018-02-08T06:19:58.242Z,-0.60
2018-02-08T06:22:26.376Z,-0.70
2018-02-08T06:24:54.505Z,-0.70
2018-02-08T06:27:22.685Z,-0.60
2018-02-08T06:29:50.782Z,-0.60
2018-02-08T06:32:18.912Z,-0.70
2018-02-08T06:34:47.051Z,-0.70
2018-02-08T06:37:15.197Z,-0.70
2018-02-08T06:39:43.348Z,-0.70
2018-02-08T06:42:11.506Z,-0.80
2018-02-08T06:44:39.626Z,-0.80
2018-02-08T06:47:07.742Z,-0.80
2018-02-08T06:49:35.886Z,-0.80
2018-02-08T06:52:04.026Z,-0.80
2018-02-08T06:54:32.182Z,-0.80
2018-02-08T06:57:00.313Z,-0.80
2018-02-08T06:59:28.465Z,-0.80
2018-02-08T07:01:56.584Z,-0.80
2018-02-08T07:04:24.738Z,-0.70
2018-02-08T07:06:52.856Z,-0.70
2018-02-08T07:09:21.743Z,-0.70
2018-02-08T07:11:50.661Z,-0.80
2018-02-08T07:14:18.794Z,-0.80
2018-02-08T07:16:46.951Z,-0.70
2018-02-08T07:19:15.078Z,-0.70
2018-02-08T07:21:43.215Z,-0.70
2018-02-08T07:24:12.122Z,-0.80
2018-02-08T07:26:40.238Z,-0.80
2018-02-08T07:29:08.388Z,-0.80
2018-02-08T07:31:36.507Z,-0.80
2018-02-08T07:34:04.674Z,-0.80
2018-02-08T07:36:32.830Z,-0.80
2018-02-08T07:39:00.958Z,-0.80
2018-02-08T07:41:29.106Z,-0.80
2018-02-08T07:43:57.998Z,-1.00
2018-02-08T07:46:26.904Z,-1.00
2018-02-08T07:48:55.062Z,-1.00
2018-02-08T07:51:24.004Z,-1.00
2018-02-08T07:53:52.129Z,-1.00
2018-02-08T07:56:21.065Z,-1.00
2018-02-08T07:58:49.194Z,-1.00
2018-02-08T08:01:18.094Z,-1.00
2018-02-08T08:03:46.233Z,-1.00
2018-02-08T08:06:14.378Z,-0.90
2018-02-08T08:08:42.543Z,-0.90
2018-02-08T08:11:10.670Z,-0.80
2018-02-08T08:13:39.568Z,-0.70
2018-02-08T08:16:08.466Z,-0.60
2018-02-08T08:18:36.636Z,-0.60
2018-02-08T08:21:04.774Z,-0.60
2018-02-08T08:23:32.888Z,-0.60
2018-02-08T08:26:01.041Z,-0.60
2018-02-08T08:28:29.933Z,-0.50
2018-02-08T08:30:58.841Z,-0.50
2018-02-08T08:33:27.097Z,-0.50
2018-02-08T08:35:56.994Z,-0.60
2018-02-08T08:38:29.767Z,-0.60
2018-02-08T08:40:57.932Z,-0.50
2018-02-08T08:43:26.085Z,-0.50
2018-02-08T08:45:54.230Z,-0.40
2018-02-08T08:48:22.388Z,-0.40
2018-02-08T08:50:51.281Z,-0.20
2018-02-08T08:53:19.455Z,-0.20
2018-02-08T08:55:48.345Z,0.10
2018-02-08T08:58:16.510Z,0.10
2018-02-08T09:00:45.488Z,0.30
2018-02-08T09:03:14.393Z,0.30
2018-02-08T09:05:43.328Z,0.40
2018-02-08T09:08:11.442Z,0.40
2018-02-08T09:10:39.612Z,0.40
2018-02-08T09:13:07.749Z,0.40
2018-02-08T09:15:35.875Z,0.40
2018-02-08T09:18:04.768Z,0.40
2018-02-08T09:20:33.655Z,0.40
2018-02-08T09:23:02.566Z,0.50
2018-02-08T09:25:30.697Z,0.40
2018-02-08T09:27:59.620Z,0.50
2018-02-08T09:30:27.759Z,0.50
2018-02-08T09:32:55.897Z,0.60
2018-02-08T09:35:24.376Z,0.60
2018-02-08T09:37:52.517Z,0.80
2018-02-08T09:40:21.407Z,0.80
2018-02-08T09:42:49.536Z,0.70
2018-02-08T09:45:17.681Z,0.80
2018-02-08T09:47:45.833Z,0.80
2018-02-08T09:50:13.935Z,1.00
2018-02-08T09:52:42.082Z,1.10
2018-02-08T09:55:10.220Z,1.00
2018-02-08T09:57:38.343Z,1.00
2018-02-08T10:00:07.273Z,1.10
2018-02-08T10:02:35.417Z,1.10
2018-02-08T10:05:03.562Z,1.10
2018-02-08T10:07:31.685Z,1.20
2018-02-08T10:10:00.608Z,1.20
2018-02-08T10:12:28.743Z,1.20
2018-02-08T10:14:56.895Z,1.30
2018-02-08T10:17:25.033Z,1.30
2018-02-08T10:19:53.177Z,1.40
2018-02-08T10:22:22.082Z,1.40
2018-02-08T10:24:50.231Z,1.40
2018-02-08T10:27:19.149Z,1.50
2018-02-08T10:29:47.259Z,1.40
2018-02-08T10:32:15.421Z,1.50
2018-02-08T10:34:43.526Z,1.60
2018-02-08T10:37:11.651Z,1.70
2018-02-08T10:39:39.780Z,1.80
2018-02-08T10:42:08.700Z,1.90
2018-02-08T10:44:36.833Z,1.90
2018-02-08T10:47:04.957Z,2.00
2018-02-08T10:49:33.113Z,1.90
2018-02-08T10:52:01.247Z,1.80
2018-02-08T10:54:29.380Z,1.70
2018-02-08T10:56:57.511Z,1.70
2018-02-08T10:59:26.429Z,1.80
2018-02-08T11:01:54.562Z,1.80
2018-02-08T11:04:22.712Z,1.70
2018-02-08T11:06:50.838Z,1.80
2018-02-08T11:09:18.958Z,1.70
2018-02-08T11:11:47.121Z,1.70
2018-02-08T11:14:15.237Z,1.70
2018-02-08T11:16:44.142Z,1.90
2018-02-08T11:19:12.282Z,1.90
2018-02-08T11:21:40.437Z,2.00
2018-02-08T11:24:08.575Z,1.80
2018-02-08T11:26:36.698Z,1.80
2018-02-08T11:29:04.850Z,1.80
2018-02-08T11:31:32.976Z,1.80
2018-02-08T11:34:01.137Z,1.90
2018-02-08T11:36:30.038Z,2.10
2018-02-08T11:38:58.183Z,2.10
2018-02-08T11:41:27.073Z,2.30
2018-02-08T11:43:55.219Z,2.30
2018-02-08T11:46:23.353Z,2.40
2018-02-08T11:48:51.472Z,2.40
2018-02-08T11:51:19.609Z,2.40
2018-02-08T11:53:47.750Z,2.50
2018-02-08T11:56:16.657Z,2.50
2018-02-08T11:58:44.799Z,2.50
2018-02-08T12:01:13.714Z,2.50
2018-02-08T12:03:41.884Z,2.50
2018-02-08T12:06:10.757Z,2.50
2018-02-08T12:08:39.656Z,2.40
2018-02-08T12:11:07.784Z,2.40
2018-02-08T12:13:35.934Z,2.50
2018-02-08T12:16:04.968Z,2.60
2018-02-08T12:18:33.095Z,2.50
2018-02-08T12:21:01.241Z,2.60
2018-02-08T12:23:30.128Z,2.50
2018-02-08T12:26:00.030Z,2.60
2018-02-08T12:28:28.952Z,2.60
2018-02-08T12:30:58.024Z,2.60
2018-02-08T12:33:26.189Z,2.60
2018-02-08T12:35:55.086Z,2.70
2018-02-08T12:38:24.001Z,2.70
2018-02-08T12:40:52.118Z,2.70
2018-02-08T12:43:20.288Z,2.60
2018-02-08T12:45:48.395Z,2.50
2018-02-08T12:48:17.296Z,2.20
2018-02-08T12:50:45.774Z,2.20
2018-02-08T12:53:14.708Z,2.30
2018-02-08T12:55:42.800Z,2.30
2018-02-08T12:58:10.925Z,2.20
2018-02-08T13:00:39.080Z,2.30
2018-02-08T13:03:07.967Z,2.50
2018-02-08T13:05:36.123Z,2.50
2018-02-08T13:08:06.215Z,2.50
2018-02-08T13:10:34.354Z,2.50
2018-02-08T13:13:02.491Z,2.40
2018-02-08T13:15:31.387Z,2.30
2018-02-08T13:18:00.322Z,2.30
2018-02-08T13:20:28.451Z,2.20
2018-02-08T13:22:57.383Z,2.50
2018-02-08T13:25:25.516Z,2.40
2018-02-08T13:27:54.470Z,2.60
2018-02-08T13:30:22.601Z,2.60
2018-02-08T13:32:50.753Z,2.70
2018-02-08T13:35:18.899Z,2.70
2018-02-08T13:37:47.016Z,2.60
2018-02-08T13:40:16.016Z,2.50
2018-02-08T13:42:44.141Z,2.50
2018-02-08T13:45:12.293Z,2.50
2018-02-08T13:47:40.413Z,2.50
2018-02-08T13:50:23.451Z,2.40
2018-02-08T13:52:57.388Z,2.40
2018-02-08T13:55:31.109Z,2.40
2018-02-08T13:57:59.953Z,2.40
2018-02-08T14:00:38.058Z,2.30
2018-02-08T14:03:06.238Z,2.30
2018-02-08T14:05:34.387Z,2.10
2018-02-08T14:08:02.518Z,2.10
2018-02-08T14:10:30.654Z,2.10
2018-02-08T14:12:58.785Z,2.10
2018-02-08T14:15:27.675Z,2.00
2018-02-08T14:17:56.580Z,1.90
2018-02-08T14:20:24.719Z,1.90
2018-02-08T14:22:52.850Z,1.90
2018-02-08T14:25:21.181Z,1.80
2018-02-08T14:27:49.359Z,1.70
2018-02-08T14:30:18.250Z,1.60
2018-02-08T14:32:47.159Z,1.50
2018-02-08T14:35:15.299Z,1.50
2018-02-08T14:37:44.217Z,1.60
2018-02-08T14:40:12.354Z,1.50
2018-02-08T14:42:40.481Z,1.60
2018-02-08T14:45:08.645Z,1.60
2018-02-08T14:47:36.770Z,1.60
2018-02-08T14:50:04.924Z,1.70
2018-02-08T14:52:33.045Z,1.40
2018-02-08T14:55:01.931Z,1.10
2018-02-08T14:57:30.839Z,1.10
2018-02-08T14:59:58.997Z,1.10
2018-02-08T15:02:27.897Z,1.30
2018-02-08T15:04:56.032Z,1.20
2018-02-08T15:07:24.178Z,1.30
2018-02-08T15:09:52.315Z,1.40
2018-02-08T15:12:20.462Z,1.40
2018-02-08T15:14:49.387Z,1.30
2018-02-08T15:17:17.529Z,1.30
2018-02-08T15:19:46.425Z,1.30
2018-02-08T15:22:14.559Z,1.20
2018-02-08T15:24:42.715Z,1.30
2018-02-08T15:27:10.836Z,1.20
2018-02-08T15:29:39.739Z,1.30
2018-02-08T15:32:07.884Z,1.30
2018-02-08T15:34:36.008Z,1.40
2018-02-08T15:37:04.161Z,1.40
2018-02-08T15:39:32.279Z,1.40
2018-02-08T15:42:00.433Z,1.40
2018-02-08T15:44:28.567Z,1.40
2018-02-08T15:46:56.690Z,1.40
2018-02-08T15:49:24.822Z,1.40
2018-02-08T15:51:53.000Z,1.40
2018-02-08T15:54:21.877Z,1.40
2018-02-08T15:56:50.020Z,1.40
2018-02-08T15:59:18.175Z,1.40
2018-02-08T16:01:46.301Z,1.30
2018-02-08T16:04:14.457Z,1.30
2018-02-08T16:06:43.492Z,1.30
2018-02-08T16:09:11.671Z,1.30
2018-02-08T16:11:39.807Z,1.30
2018-02-08T16:14:07.936Z,1.30
2018-02-08T16:16:36.089Z,1.30
2018-02-08T16:19:04.223Z,1.30
2018-02-08T16:21:32.372Z,1.30
2018-02-08T16:24:00.509Z,1.20
2018-02-08T16:26:28.640Z,1.20
2018-02-08T16:28:56.770Z,1.20
2018-02-08T16:31:24.934Z,1.20
2018-02-08T16:33:53.989Z,1.20
2018-02-08T16:36:22.114Z,1.10
2018-02-08T16:38:50.237Z,1.10
2018-02-08T16:41:18.392Z,1.00
2018-02-08T16:43:46.532Z,0.90
2018-02-08T16:46:14.694Z,0.90
2018-02-08T16:48:42.807Z,0.90
2018-02-08T16:51:11.726Z,0.70
2018-02-08T16:53:39.882Z,0.70
2018-02-08T16:56:08.782Z,0.70
2018-02-08T16:58:36.932Z,0.70
2018-02-08T17:01:05.077Z,0.80
2018-02-08T17:03:33.275Z,0.80
2018-02-08T17:06:02.180Z,0.70
2018-02-08T17:08:30.334Z,0.70
2018-02-08T17:10:59.259Z,0.70
2018-02-08T17:13:27.390Z,0.60
2018-02-08T17:15:55.529Z,0.70
2018-02-08T17:18:23.736Z,0.70
2018-02-08T17:20:51.917Z,0.70
2018-02-08T17:23:20.816Z,0.70
2018-02-08T17:25:48.973Z,0.70
2018-02-08T17:28:17.896Z,0.80
2018-02-08T17:30:47.298Z,0.70
2018-02-08T17:33:15.452Z,0.80
2018-02-08T17:35:43.592Z,0.80
2018-02-08T17:38:11.752Z,0.80
2018-02-08T17:40:39.900Z,0.90
2018-02-08T17:43:08.052Z,0.90
2018-02-08T17:45:36.221Z,0.80
2018-02-08T17:48:05.094Z,0.80
2018-02-08T17:50:33.989Z,0.80
2018-02-08T17:53:02.890Z,0.70
2018-02-08T17:55:31.050Z,0.70
2018-02-08T17:57:59.946Z,0.70
2018-02-08T18:00:28.097Z,0.70
2018-02-08T18:02:56.219Z,0.70
2018-02-08T18:05:24.358Z,0.60
2018-02-08T18:07:52.521Z,0.60
2018-02-08T18:10:20.637Z,0.50
2018-02-08T18:12:48.780Z,0.50
2018-02-08T18:15:16.943Z,0.50
2018-02-08T18:17:45.078Z,0.50
2018-02-08T18:20:13.234Z,0.50
2018-02-08T18:22:41.431Z,0.50
2018-02-08T18:25:10.349Z,0.50
2018-02-08T18:27:39.243Z,0.50
2018-02-08T18:30:08.139Z,0.50
2018-02-08T18:32:36.320Z,0.50
2018-02-08T18:35:04.501Z,0.60
2018-02-08T18:37:32.620Z,0.60
2018-02-08T18:40:00.801Z,0.60
2018-02-08T18:42:28.977Z,0.60
2018-02-08T18:44:57.132Z,0.70
2018-02-08T18:47:25.293Z,0.60
2018-02-08T18:49:53.425Z,0.60
2018-02-08T18:52:21.614Z,0.70
2018-02-08T18:54:49.728Z,0.70
2018-02-08T18:57:17.902Z,0.70
2018-02-08T18:59:46.068Z,0.70
2018-02-08T19:02:14.215Z,0.70
2018-02-08T19:04:42.372Z,0.70
2018-02-08T19:07:11.292Z,0.70
2018-02-08T19:09:39.412Z,0.80
2018-02-08T19:12:08.306Z,0.80
2018-02-08T19:14:36.445Z,0.80
2018-02-08T19:17:04.592Z,0.90
2018-02-08T19:19:32.761Z,0.80
2018-02-08T19:22:00.910Z,0.80
2018-02-08T19:24:29.846Z,0.80
2018-02-08T19:26:58.006Z,0.80
2018-02-08T19:29:26.664Z,0.80
2018-02-08T19:31:55.729Z,0.90
2018-02-08T19:34:23.847Z,0.80
2018-02-08T19:36:53.293Z,0.80
2018-02-08T19:39:21.454Z,0.80
2018-02-08T19:41:50.535Z,0.80
2018-02-08T19:44:18.701Z,0.80
2018-02-08T19:46:47.610Z,0.80
2018-02-08T19:49:15.773Z,0.80
2018-02-08T19:51:43.915Z,0.80
2018-02-08T19:54:12.127Z,0.80
2018-02-08T19:56:40.346Z,0.80
2018-02-08T19:59:09.289Z,0.90
2018-02-08T20:01:37.440Z,0.80
2018-02-08T20:04:05.609Z,0.90
2018-02-08T20:06:33.815Z,0.90
2018-02-08T20:09:01.937Z,0.90
2018-02-08T20:11:30.118Z,0.90
2018-02-08T20:13:58.561Z,0.80
2018-02-08T20:16:26.730Z,0.80
2018-02-08T20:18:55.696Z,0.80
2018-02-08T20:21:23.948Z,0.70
2018-02-08T20:23:52.134Z,0.80
2018-02-08T20:26:20.278Z,0.70
2018-02-08T20:28:48.451Z,0.70
2018-02-08T20:31:16.614Z,0.70
2018-02-08T20:33:45.547Z,0.70
2018-02-08T20:36:13.783Z,0.70
2018-02-08T20:38:42.695Z,0.80
2018-02-08T20:41:10.915Z,0.70
2018-02-08T20:43:39.090Z,0.70
2018-02-08T20:46:07.278Z,0.80
2018-02-08T20:48:35.580Z,0.80
2018-02-08T20:51:03.738Z,0.80
2018-02-08T20:53:31.912Z,0.80
2018-02-08T20:56:00.853Z,0.80
2018-02-08T20:58:29.009Z,0.80
2018-02-08T21:00:57.279Z,0.90
2018-02-08T21:03:25.454Z,0.90
2018-02-08T21:05:55.246Z,0.90
2018-02-08T21:08:24.139Z,0.90
2018-02-08T21:10:52.282Z,0.90
2018-02-08T21:13:21.305Z,0.90
2018-02-08T21:15:49.502Z,0.90
2018-02-08T21:18:17.711Z,0.90
2018-02-08T21:20:46.189Z,0.80
2018-02-08T21:23:14.331Z,0.80
2018-02-08T21:25:42.471Z,0.80
2018-02-08T21:28:10.608Z,0.80
2018-02-08T21:30:38.836Z,0.80
2018-02-08T21:33:07.033Z,0.80
2018-02-08T21:35:35.165Z,0.80
2018-02-08T21:38:03.311Z,0.80
2018-02-08T21:40:31.458Z,0.80
2018-02-08T21:42:59.607Z,0.80
2018-02-08T21:45:27.757Z,0.80
2018-02-08T21:47:56.670Z,0.70
2018-02-08T21:50:24.948Z,0.80
2018-02-08T21:52:53.092Z,0.80
2018-02-08T21:55:22.176Z,0.80
2018-02-08T21:57:51.113Z,0.70
2018-02-08T22:00:19.247Z,0.70
2018-02-08T22:02:48.155Z,0.70
2018-02-08T22:05:16.311Z,0.70
2018-02-08T22:07:44.478Z,0.80
2018-02-08T22:10:13.384Z,0.70
2018-02-08T22:12:41.532Z,0.70
2018-02-08T22:15:09.680Z,0.70
2018-02-08T22:17:37.829Z,0.80
2018-02-08T22:20:05.977Z,0.80
2018-02-08T22:22:34.117Z,0.80
2018-02-08T22:25:03.052Z,0.80
2018-02-08T22:27:31.406Z,0.80
2018-02-08T22:30:00.299Z,0.80
2018-02-08T22:32:29.214Z,0.80
2018-02-08T22:34:57.357Z,0.80
2018-02-08T22:37:26.632Z,0.80
2018-02-08T22:39:54.770Z,0.80
2018-02-08T22:42:23.010Z,0.80
2018-02-08T22:44:51.274Z,0.90
2018-02-08T22:47:20.170Z,0.80
2018-02-08T22:49:49.117Z,0.80
2018-02-08T22:52:17.281Z,0.80
2018-02-08T22:54:45.711Z,0.80
2018-02-08T22:57:13.846Z,0.80
2018-02-08T22:59:41.995Z,0.80
2018-02-08T23:02:10.152Z,0.80
2018-02-08T23:04:38.269Z,0.80
2018-02-08T23:07:07.321Z,0.80
2018-02-08T23:09:36.198Z,0.80
2018-02-08T23:12:04.687Z,0.70
2018-02-08T23:14:32.964Z,0.80
2018-02-08T23:17:01.114Z,0.80
2018-02-08T23:19:30.046Z,0.80
2018-02-08T23:21:58.407Z,0.80
2018-02-08T23:24:26.624Z,0.80
2018-02-08T23:26:54.816Z,0.80
2018-02-08T23:29:23.849Z,0.80
2018-02-08T23:31:52.010Z,0.80
2018-02-08T23:34:20.147Z,0.80
2018-02-08T23:36:48.327Z,0.60
2018-02-08T23:39:17.218Z,0.50
2018-02-08T23:41:46.129Z,0.60
2018-02-08T23:44:15.027Z,0.60
2018-02-08T23:46:43.164Z,0.60
2018-02-08T23:49:12.051Z,0.60
2018-02-08T23:51:40.991Z,0.70
2018-02-08T23:54:09.126Z,0.60
2018-02-08T23:56:38.053Z,0.70
2018-02-08T23:59:06.181Z,0.70
